Time;durP1;ratioP1;P1;durP2;ratioP2;P2;SDS_P1;SDS_P2;PMS_P1;PMS_P2;Temp;Humidity;BMP_temperature;BMP_pressure;BME280_temperature;BME280_humidity;BME280_pressure;Samples;Min_cycle;Max_cycle;Signal;HPM_P1;HPM_P2
2022/02/21 00:00:36;;;;;;;3.13;1.75;;;10.80;99.90;;;;;;5030440;28;20025;-49
2022/02/21 00:03:02;;;;;;;2.33;1.10;;;10.70;99.90;;;;;;5029975;28;20033;-51
2022/02/21 00:05:28;;;;;;;3.85;1.25;;;10.70;99.90;;;;;;5026204;28;20029;-49
2022/02/21 00:07:53;;;;;;;1.95;1.23;;;10.70;99.90;;;;;;5029860;28;20037;-43
2022/02/21 00:10:19;;;;;;;4.90;1.55;;;10.70;99.90;;;;;;5030065;28;20049;-45
2022/02/21 00:12:45;;;;;;;6.93;1.67;;;10.70;99.90;;;;;;5029370;28;20504;-48
2022/02/21 00:15:17;;;;;;;5.13;1.70;;;10.70;99.90;;;;;;5028804;28;20112;-44
2022/02/21 00:17:43;;;;;;;6.50;2.47;;;10.70;99.90;;;;;;5029770;28;20040;-46
2022/02/21 00:20:09;;;;;;;6.10;2.00;;;10.70;99.90;;;;;;5029581;28;20381;-49
2022/02/21 00:22:35;;;;;;;4.15;1.42;;;10.70;99.90;;;;;;5029919;28;20029;-47
2022/02/21 00:25:00;;;;;;;3.10;1.10;;;10.70;99.90;;;;;;5029379;28;20515;-49
2022/02/21 00:27:26;;;;;;;1.30;1.20;;;10.70;99.90;;;;;;5029836;28;20022;-51
2022/02/21 00:29:51;;;;;;;4.90;1.30;;;10.60;99.90;;;;;;5029350;28;20029;-52
2022/02/21 00:32:17;;;;;;;4.22;1.63;;;10.70;99.90;;;;;;5029217;28;20045;-46
2022/02/21 00:34:43;;;;;;;14.00;7.25;;;10.60;99.90;;;;;;5029295;28;20451;-48
2022/02/21 00:37:08;;;;;;;3.13;1.13;;;10.60;99.90;;;;;;5028401;28;20414;-47
2022/02/21 00:39:35;;;;;;;3.30;1.17;;;10.60;99.90;;;;;;5029414;28;20405;-49
2022/02/21 00:42:00;;;;;;;2.55;1.27;;;10.60;99.90;;;;;;5026995;28;20029;-47
2022/02/21 00:44:26;;;;;;;3.85;1.00;;;10.60;99.90;;;;;;5032213;28;20030;-48
2022/02/21 00:46:51;;;;;;;2.08;1.00;;;10.60;99.90;;;;;;5029856;28;20052;-49
2022/02/21 00:49:17;;;;;;;2.75;1.08;;;10.60;99.90;;;;;;5029400;28;20037;-47
2022/02/21 00:51:42;;;;;;;6.18;1.50;;;10.60;99.90;;;;;;5029032;28;20028;-48
2022/02/21 00:54:08;;;;;;;4.25;1.10;;;10.60;99.90;;;;;;5011029;28;20102;-49
2022/02/21 00:56:33;;;;;;;3.88;1.25;;;10.60;99.90;;;;;;5010818;28;20022;-51
2022/02/21 00:58:59;;;;;;;3.28;0.90;;;10.50;99.90;;;;;;5012305;28;20030;-48
2022/02/21 01:01:25;;;;;;;2.17;1.05;;;10.60;99.90;;;;;;5012211;28;20541;-43
2022/02/21 01:03:50;;;;;;;2.22;1.20;;;10.50;99.90;;;;;;5010608;28;20022;-48
2022/02/21 01:06:19;;;;;;;3.05;1.48;;;10.60;99.90;;;;;;5011927;28;20018;-42
2022/02/21 01:08:45;;;;;;;4.35;1.00;;;10.60;99.90;;;;;;5012399;28;20022;-48
2022/02/21 01:11:12;;;;;;;2.53;1.02;;;10.70;99.90;;;;;;5039675;22;20420;-41
2022/02/21 01:13:38;;;;;;;3.92;0.98;;;10.70;99.90;;;;;;5029088;28;20014;-46
2022/02/21 01:16:04;;;;;;;3.67;0.93;;;10.70;99.90;;;;;;5031027;28;20037;-44
2022/02/21 01:18:29;;;;;;;3.67;1.00;;;10.70;99.90;;;;;;5032048;28;20100;-44
2022/02/21 01:20:55;;;;;;;1.98;1.15;;;10.70;99.90;;;;;;5031974;28;20053;-45
2022/02/21 01:23:20;;;;;;;2.58;1.00;;;10.70;99.90;;;;;;5032136;28;20028;-43
2022/02/21 01:25:46;;;;;;;3.25;0.90;;;10.60;99.90;;;;;;5031823;28;20122;-43
2022/02/21 01:28:11;;;;;;;2.08;1.05;;;10.60;99.90;;;;;;5032117;28;20033;-44
2022/02/21 01:30:37;;;;;;;1.58;0.95;;;10.60;99.90;;;;;;5031648;28;20397;-45
2022/02/21 01:33:02;;;;;;;4.00;1.52;;;10.60;99.90;;;;;;5033237;28;20095;-44
2022/02/21 01:35:28;;;;;;;3.70;0.80;;;10.60;99.90;;;;;;5032258;28;20112;-43
2022/02/21 01:37:54;;;;;;;5.72;0.95;;;10.60;99.90;;;;;;5031665;28;20083;-45
2022/02/21 01:40:21;;;;;;;11.43;2.50;;;10.60;99.90;;;;;;5032410;28;20069;-43
2022/02/21 01:42:47;;;;;;;15.93;2.67;;;10.10;99.90;;;;;;5032224;28;20022;-43
2022/02/21 01:45:13;;;;;;;14.93;2.80;;;8.90;99.90;;;;;;5032427;28;20097;-45
2022/02/21 01:47:38;;;;;;;13.43;2.20;;;7.90;99.90;;;;;;5032453;28;20063;-43
2022/02/21 01:50:05;;;;;;;8.88;1.65;;;7.40;99.90;;;;;;5034256;28;20029;-38
2022/02/21 01:52:31;;;;;;;6.35;1.65;;;7.20;99.90;;;;;;5031824;28;20033;-44
2022/02/21 01:54:57;;;;;;;7.80;1.65;;;7.20;99.90;;;;;;5033111;28;20034;-45
2022/02/21 01:57:25;;;;;;;8.32;1.52;;;7.30;99.90;;;;;;5033779;28;20026;-45
2022/02/21 01:59:51;;;;;;;5.75;1.80;;;7.30;99.90;;;;;;5032712;28;20045;-44
2022/02/21 02:02:16;;;;;;;2.63;0.88;;;7.30;99.90;;;;;;5031751;28;20481;-44
2022/02/21 02:08:05;;;;;;;5.30;1.20;;;7.30;99.90;;;;;;5031549;28;20056;-42
2022/02/21 02:10:32;;;;;;;5.57;0.90;;;7.30;99.90;;;;;;5033494;28;20053;-42
2022/02/21 02:12:58;;;;;;;5.97;1.15;;;7.20;99.90;;;;;;5034090;28;20117;-43
2022/02/21 02:15:24;;;;;;;9.15;1.27;;;7.30;99.90;;;;;;5034155;28;20045;-45
2022/02/21 02:17:50;;;;;;;5.43;0.68;;;7.30;99.90;;;;;;5032901;28;20026;-41
2022/02/21 02:20:18;;;;;;;6.53;1.13;;;7.40;99.90;;;;;;5032629;28;20026;-44
2022/02/21 02:22:44;;;;;;;7.55;1.73;;;7.40;99.90;;;;;;5032288;28;20017;-41
2022/02/21 02:25:10;;;;;;;3.72;1.52;;;7.50;99.90;;;;;;5033102;28;20249;-43
2022/02/21 02:27:35;;;;;;;2.83;0.90;;;7.50;99.90;;;;;;5032610;28;20021;-39
2022/02/21 02:30:06;;;;;;;11.40;1.83;;;7.60;99.90;;;;;;5033265;28;20033;-42
2022/02/21 02:32:32;;;;;;;7.80;1.20;;;7.60;99.90;;;;;;5033965;28;20026;-43
2022/02/21 02:34:58;;;;;;;3.72;1.30;;;7.70;99.90;;;;;;5033448;28;20078;-43
2022/02/21 02:37:25;;;;;;;1.73;0.80;;;7.80;99.90;;;;;;5032829;28;20022;-43
2022/02/21 02:39:52;;;;;;;7.20;1.08;;;7.90;99.90;;;;;;5035410;28;20032;-44
2022/02/21 02:42:18;;;;;;;5.47;1.55;;;7.90;99.90;;;;;;5036183;28;20022;-44
2022/02/21 02:44:47;;;;;;;11.13;2.40;;;8.00;99.90;;;;;;5037277;28;20444;-45
2022/02/21 02:47:13;;;;;;;7.47;1.60;;;8.00;99.90;;;;;;5037074;28;20026;-43
2022/02/21 02:49:40;;;;;;;2.50;1.13;;;8.00;99.90;;;;;;5036444;28;20025;-41
2022/02/21 02:52:06;;;;;;;6.10;1.67;;;8.10;99.90;;;;;;5035817;28;20041;-43
2022/02/21 02:54:33;;;;;;;1.95;0.70;;;8.10;99.90;;;;;;5036791;28;20029;-44
2022/02/21 02:56:58;;;;;;;6.40;1.77;;;8.10;99.90;;;;;;5037295;28;20113;-42
2022/02/21 02:59:25;;;;;;;4.22;1.40;;;8.10;99.90;;;;;;5036406;28;20079;-43
2022/02/21 03:01:52;;;;;;;3.20;1.13;;;8.10;99.90;;;;;;5034853;28;20466;-43
2022/02/21 03:04:17;;;;;;;7.07;1.88;;;8.20;99.90;;;;;;5034662;28;20067;-42
2022/02/21 03:06:43;;;;;;;2.70;1.27;;;8.20;99.90;;;;;;5035040;28;20021;-46
2022/02/21 03:09:09;;;;;;;4.55;1.48;;;8.20;99.90;;;;;;5034693;28;20564;-44
2022/02/21 03:11:35;;;;;;;5.03;2.00;;;8.30;99.90;;;;;;5034278;28;20052;-39
2022/02/21 03:14:00;;;;;;;3.28;1.63;;;8.30;99.90;;;;;;5034021;28;20038;-43
2022/02/21 03:16:27;;;;;;;5.68;1.77;;;8.30;99.90;;;;;;5034412;28;20026;-42
2022/02/21 03:18:53;;;;;;;6.50;2.08;;;8.40;99.90;;;;;;5034501;28;20440;-47
2022/02/21 03:21:19;;;;;;;6.90;2.40;;;8.40;99.90;;;;;;5032796;28;20057;-47
2022/02/21 03:23:44;;;;;;;4.38;1.65;;;8.40;99.90;;;;;;5034009;28;20025;-42
2022/02/21 03:26:10;;;;;;;4.72;2.13;;;8.40;99.90;;;;;;5034297;28;20230;-46
2022/02/21 03:28:36;;;;;;;10.50;2.20;;;8.30;99.90;;;;;;5034204;28;20467;-43
2022/02/21 03:31:01;;;;;;;5.18;1.55;;;8.30;99.90;;;;;;5034181;28;20108;-46
2022/02/21 03:33:27;;;;;;;4.90;1.92;;;8.20;99.90;;;;;;5033953;28;20417;-44
2022/02/21 03:35:52;;;;;;;6.55;1.48;;;8.20;99.90;;;;;;5033963;28;20022;-46
2022/02/21 03:38:18;;;;;;;9.90;1.73;;;8.20;99.90;;;;;;5034134;28;20027;-46
2022/02/21 03:40:44;;;;;;;4.90;1.77;;;8.20;99.90;;;;;;5033910;28;20025;-49
2022/02/21 03:43:09;;;;;;;5.15;1.40;;;8.30;99.90;;;;;;5033419;28;20022;-45
2022/02/21 03:45:35;;;;;;;10.65;1.83;;;8.20;99.90;;;;;;5033741;28;20017;-40
2022/02/21 03:48:01;;;;;;;9.23;1.50;;;8.20;99.90;;;;;;5033386;28;20064;-45
2022/02/21 03:50:26;;;;;;;7.20;1.70;;;8.20;99.90;;;;;;5033529;28;20180;-44
2022/02/21 03:52:52;;;;;;;4.78;1.52;;;8.20;99.90;;;;;;5033419;28;20033;-44
2022/02/21 03:55:17;;;;;;;7.70;2.00;;;8.20;99.90;;;;;;5032331;28;20394;-46
2022/02/21 03:57:43;;;;;;;8.48;1.98;;;8.10;99.90;;;;;;5033334;28;20078;-40
2022/02/21 04:00:10;;;;;;;6.40;1.70;;;8.10;99.90;;;;;;5032066;28;20026;-46
2022/02/21 04:02:36;;;;;;;2.67;1.10;;;8.10;99.90;;;;;;5034009;28;20022;-43
2022/02/21 04:05:03;;;;;;;10.32;1.98;;;8.10;99.80;;;;;;5033604;28;20068;-45
2022/02/21 04:07:29;;;;;;;5.28;1.63;;;8.00;97.80;;;;;;5033076;28;20037;-45
2022/02/21 04:09:55;;;;;;;3.17;1.25;;;8.00;98.50;;;;;;5033600;28;20033;-44
2022/02/21 04:12:21;;;;;;;3.45;1.15;;;8.00;97.50;;;;;;5032977;28;20527;-43
2022/02/21 04:14:46;;;;;;;4.00;1.00;;;7.90;97.40;;;;;;5033139;28;20477;-48
2022/02/21 04:17:13;;;;;;;5.57;1.00;;;7.80;96.40;;;;;;5033105;28;20025;-45
2022/02/21 04:19:39;;;;;;;7.35;1.90;;;7.70;97.30;;;;;;5033064;28;20457;-38
2022/02/21 04:22:09;;;;;;;9.10;1.55;;;7.60;97.50;;;;;;5033020;28;20064;-47
2022/02/21 04:24:35;;;;;;;8.60;1.77;;;7.50;98.20;;;;;;5032946;28;20037;-44
2022/02/21 04:27:00;;;;;;;2.08;1.52;;;7.40;98.70;;;;;;5032919;28;20029;-45
2022/02/21 04:29:26;;;;;;;8.88;1.17;;;7.30;99.10;;;;;;5032856;28;20064;-41
2022/02/21 04:31:51;;;;;;;8.25;1.40;;;7.20;99.70;;;;;;5033211;28;20300;-44
2022/02/21 04:34:17;;;;;;;8.70;1.73;;;7.10;99.90;;;;;;5032605;28;20374;-45
2022/02/21 04:36:42;;;;;;;2.70;1.00;;;7.10;99.90;;;;;;5032694;28;20025;-44
2022/02/21 04:39:08;;;;;;;5.50;2.03;;;7.10;99.90;;;;;;5033796;28;20049;-42
2022/02/21 04:41:33;;;;;;;8.10;1.30;;;7.00;99.90;;;;;;5032442;28;20045;-38
2022/02/21 04:43:59;;;;;;;3.80;1.50;;;6.90;99.90;;;;;;5032734;28;20365;-46
2022/02/21 04:46:25;;;;;;;7.43;1.70;;;6.90;99.90;;;;;;5032595;28;20032;-44
2022/02/21 04:49:29;;;;;;;6.07;1.83;;;6.90;99.90;;;;;;5032817;28;20029;-43
2022/02/21 04:51:57;;;;;;;6.50;1.52;;;6.80;99.90;;;;;;5030508;28;20025;-38
2022/02/21 04:54:23;;;;;;;12.82;2.78;;;6.70;99.90;;;;;;5032169;28;20022;-39
2022/02/21 04:56:48;;;;;;;6.38;1.95;;;6.60;99.90;;;;;;5032376;28;20025;-43
2022/02/21 04:59:14;;;;;;;11.02;2.53;;;6.60;99.90;;;;;;5032458;28;20064;-43
2022/02/21 05:01:39;;;;;;;9.93;2.00;;;6.60;99.90;;;;;;5031849;28;20091;-48
2022/02/21 05:04:05;;;;;;;12.45;2.15;;;6.50;99.90;;;;;;5032143;28;20465;-40
2022/02/21 05:06:30;;;;;;;9.55;1.77;;;6.40;99.90;;;;;;5031944;28;20026;-42
2022/02/21 05:08:58;;;;;;;10.95;1.77;;;6.40;99.90;;;;;;5032245;28;20100;-48
2022/02/21 05:11:23;;;;;;;11.38;2.47;;;6.40;99.90;;;;;;5032136;28;20033;-45
2022/02/21 05:13:49;;;;;;;10.40;2.03;;;6.40;99.90;;;;;;5031933;28;20029;-44
2022/02/21 05:16:14;;;;;;;19.33;3.17;;;6.40;99.90;;;;;;5032128;28;20072;-47
2022/02/21 05:18:40;;;;;;;12.75;2.78;;;6.40;99.90;;;;;;5032479;28;20029;-45
2022/02/21 05:21:06;;;;;;;9.50;2.67;;;6.40;99.90;;;;;;5031766;28;20029;-46
2022/02/21 05:23:31;;;;;;;11.23;1.67;;;6.40;99.90;;;;;;5031667;28;20017;-45
2022/02/21 05:25:57;;;;;;;11.32;3.17;;;6.40;99.90;;;;;;5032001;28;20029;-47
2022/02/21 05:28:22;;;;;;;11.10;2.00;;;6.40;99.90;;;;;;5031713;28;20428;-43
2022/02/21 05:30:48;;;;;;;11.57;2.97;;;6.40;99.90;;;;;;5031766;28;20038;-43
2022/02/21 05:33:15;;;;;;;8.60;1.60;;;6.40;99.90;;;;;;5031680;28;20036;-45
2022/02/21 05:35:40;;;;;;;13.07;2.78;;;6.40;99.90;;;;;;5031817;28;20215;-43
2022/02/21 05:38:06;;;;;;;9.20;2.78;;;6.40;99.90;;;;;;5031801;28;20025;-38
2022/02/21 05:40:31;;;;;;;12.57;2.75;;;6.30;99.90;;;;;;5031492;28;20045;-46
2022/02/21 05:42:57;;;;;;;10.48;2.70;;;6.30;99.90;;;;;;5030199;28;20124;-43
2022/02/21 05:45:22;;;;;;;8.35;1.90;;;6.30;99.90;;;;;;5031810;28;20502;-48
2022/02/21 05:47:48;;;;;;;6.90;2.15;;;6.30;99.90;;;;;;5031808;28;20026;-41
2022/02/21 05:50:14;;;;;;;9.85;2.47;;;6.20;99.90;;;;;;5030265;28;20021;-45
2022/02/21 05:52:39;;;;;;;10.98;2.70;;;6.20;99.90;;;;;;5031581;28;20021;-42
2022/02/21 05:55:05;;;;;;;13.57;2.67;;;6.20;99.90;;;;;;5031404;28;20037;-43
2022/02/21 05:57:31;;;;;;;11.48;2.30;;;6.10;99.90;;;;;;5031547;28;20025;-43
2022/02/21 05:59:59;;;;;;;8.70;3.05;;;6.10;99.90;;;;;;5031332;28;20037;-47
2022/02/21 06:02:24;;;;;;;11.77;2.50;;;6.10;99.90;;;;;;5031770;28;20396;-42
2022/02/21 06:04:50;;;;;;;8.90;2.55;;;6.10;99.90;;;;;;5032683;28;20029;-44
2022/02/21 06:07:17;;;;;;;10.68;3.58;;;6.00;99.90;;;;;;5033412;28;20017;-43
2022/02/21 06:09:44;;;;;;;17.52;3.63;;;6.00;99.90;;;;;;5032993;28;20030;-38
2022/02/21 06:12:11;;;;;;;18.15;2.17;;;6.00;99.90;;;;;;5034602;28;20523;-43
2022/02/21 06:14:37;;;;;;;12.07;2.50;;;5.90;99.90;;;;;;5037601;28;20053;-42
2022/02/21 06:17:03;;;;;;;11.15;2.45;;;5.90;99.90;;;;;;5037846;28;20034;-43
2022/02/21 06:19:28;;;;;;;6.22;2.88;;;6.00;99.90;;;;;;5036016;28;20030;-43
2022/02/21 06:21:55;;;;;;;11.55;2.05;;;5.90;99.90;;;;;;5036047;28;20026;-43
2022/02/21 06:24:21;;;;;;;16.75;4.57;;;5.90;99.90;;;;;;5034922;28;20032;-41
2022/02/21 06:26:47;;;;;;;10.07;2.05;;;5.90;99.90;;;;;;5035567;28;20432;-44
2022/02/21 06:29:12;;;;;;;9.07;4.47;;;5.90;99.90;;;;;;5035307;28;20022;-44
2022/02/21 06:31:38;;;;;;;6.57;3.20;;;5.90;99.90;;;;;;5035613;28;20036;-41
2022/02/21 06:34:05;;;;;;;6.32;2.15;;;5.90;99.90;;;;;;5035732;28;20393;-44
2022/02/21 06:36:31;;;;;;;10.25;2.75;;;5.90;99.90;;;;;;5035723;28;20026;-41
2022/02/21 06:38:56;;;;;;;10.88;2.95;;;5.90;99.90;;;;;;5035239;28;20083;-45
2022/02/21 06:41:23;;;;;;;11.27;2.90;;;5.90;99.90;;;;;;5034737;28;20370;-47
2022/02/21 06:43:48;;;;;;;14.40;2.92;;;5.90;99.90;;;;;;5035626;28;20113;-42
2022/02/21 06:46:14;;;;;;;11.20;3.30;;;5.90;99.90;;;;;;5035710;28;20417;-44
2022/02/21 06:48:39;;;;;;;8.73;2.63;;;6.00;99.90;;;;;;5035337;28;20030;-43
2022/02/21 06:51:05;;;;;;;13.00;3.33;;;6.10;99.90;;;;;;5036741;28;20033;-47
2022/02/21 06:53:31;;;;;;;15.15;4.03;;;6.10;99.90;;;;;;5036883;28;20057;-42
2022/02/21 06:55:56;;;;;;;8.10;2.50;;;6.20;99.90;;;;;;5034696;28;20514;-43
2022/02/21 06:58:22;;;;;;;6.88;2.33;;;6.30;99.90;;;;;;5035072;28;20029;-46
2022/02/21 07:00:47;;;;;;;25.50;3.65;;;6.40;99.90;;;;;;5034606;28;20402;-46
2022/02/21 07:03:13;;;;;;;19.45;4.80;;;6.50;99.90;;;;;;5034333;28;20030;-46
2022/02/21 07:05:39;;;;;;;11.95;2.47;;;6.50;99.90;;;;;;5033964;28;20029;-39
2022/02/21 07:08:06;;;;;;;17.13;2.70;;;6.50;99.90;;;;;;5034394;28;20021;-44
2022/02/21 07:10:32;;;;;;;14.55;2.83;;;6.50;99.90;;;;;;5034266;28;20117;-47
2022/02/21 07:12:57;;;;;;;11.15;2.35;;;6.40;99.90;;;;;;5056026;22;20480;-44
2022/02/21 07:15:23;;;;;;;11.73;2.75;;;6.60;99.90;;;;;;5034175;28;20401;-44
2022/02/21 07:17:49;;;;;;;9.45;2.08;;;6.80;99.90;;;;;;5033100;28;20037;-44
2022/02/21 07:20:15;;;;;;;10.05;2.00;;;7.00;99.90;;;;;;5033965;28;20044;-44
2022/02/21 07:22:42;;;;;;;7.80;1.77;;;7.30;99.90;;;;;;5033396;28;20022;-46
2022/02/21 07:25:13;;;;;;;4.82;1.30;;;7.30;99.90;;;;;;5034023;28;20029;-45
2022/02/21 07:27:51;;;;;;;3.55;1.65;;;7.20;99.90;;;;;;5034292;28;20022;-43
2022/02/21 07:30:19;;;;;;;3.67;1.65;;;6.90;99.90;;;;;;5033948;28;20060;-45
2022/02/21 07:32:45;;;;;;;2.35;0.68;;;6.30;99.90;;;;;;5033890;28;20038;-45
2022/02/21 07:35:11;;;;;;;2.50;1.20;;;5.90;99.90;;;;;;5032956;28;20030;-44
2022/02/21 07:37:41;;;;;;;6.63;0.73;;;5.80;99.90;;;;;;5033928;28;20119;-44
2022/02/21 07:40:08;;;;;;;4.93;0.95;;;5.60;99.90;;;;;;5033825;28;20401;-43
2022/02/21 07:45:56;;;;;;;7.88;1.95;;;5.50;99.90;;;;;;5031648;28;20033;-45
2022/02/21 07:48:21;;;;;;;5.35;1.70;;;5.50;99.90;;;;;;5032329;28;20445;-44
2022/02/21 07:50:47;;;;;;;7.03;1.10;;;5.70;99.90;;;;;;5033732;28;20025;-45
2022/02/21 07:53:12;;;;;;;4.85;1.45;;;5.70;99.90;;;;;;5033108;28;20033;-44
2022/02/21 07:55:38;;;;;;;3.22;1.27;;;5.70;99.90;;;;;;5033548;28;20032;-44
2022/02/21 07:58:04;;;;;;;6.95;1.38;;;5.60;99.90;;;;;;5033677;28;20055;-44
2022/02/21 08:00:29;;;;;;;6.13;2.15;;;5.60;99.90;;;;;;5033593;28;20022;-46
2022/02/21 08:02:55;;;;;;;6.72;1.70;;;5.60;99.90;;;;;;5032987;28;20443;-48
2022/02/21 08:05:21;;;;;;;9.23;2.20;;;5.60;99.90;;;;;;5033291;28;20030;-45
2022/02/21 08:07:47;;;;;;;7.05;2.40;;;5.80;99.90;;;;;;5033066;28;20053;-43
2022/02/21 08:10:13;;;;;;;11.13;2.78;;;5.90;99.90;;;;;;5033278;28;20413;-43
2022/02/21 08:12:39;;;;;;;8.65;1.95;;;5.90;99.90;;;;;;5033016;28;20025;-42
2022/02/21 08:15:05;;;;;;;10.93;2.08;;;6.00;99.90;;;;;;5033341;28;20040;-43
2022/02/21 08:17:41;;;;;;;8.93;1.83;;;6.00;99.90;;;;;;5032259;28;20040;-45
2022/02/21 08:20:08;;;;;;;7.47;1.90;;;6.00;99.90;;;;;;5033735;28;20060;-45
2022/02/21 08:22:34;;;;;;;8.88;1.70;;;6.00;99.90;;;;;;5032870;28;20032;-43
2022/02/21 08:24:59;;;;;;;7.65;1.35;;;6.20;99.90;;;;;;5030866;28;20048;-44
2022/02/21 08:27:25;;;;;;;9.13;1.83;;;6.30;99.90;;;;;;5032456;28;20405;-44
2022/02/21 08:29:50;;;;;;;11.27;2.75;;;6.30;99.90;;;;;;5033139;28;20463;-44
2022/02/21 08:32:18;;;;;;;10.77;2.50;;;6.30;99.90;;;;;;5031397;28;20033;-43
2022/02/21 08:34:44;;;;;;;12.50;3.53;;;6.20;99.90;;;;;;5030273;28;20017;-44
2022/02/21 08:37:09;;;;;;;9.55;1.58;;;6.20;99.90;;;;;;5028627;28;20097;-43
2022/02/21 08:39:35;;;;;;;11.57;1.95;;;6.30;99.90;;;;;;5032022;28;20034;-43
2022/02/21 08:42:00;;;;;;;11.90;2.85;;;6.30;99.90;;;;;;5029688;28;20033;-43
2022/02/21 08:44:27;;;;;;;9.45;2.00;;;6.20;99.90;;;;;;5031799;28;20022;-41
2022/02/21 08:46:53;;;;;;;8.45;2.17;;;6.20;99.90;;;;;;5031493;28;20024;-46
2022/02/21 08:49:19;;;;;;;11.27;2.22;;;6.20;99.90;;;;;;5032478;28;20045;-43
2022/02/21 08:51:44;;;;;;;9.18;1.98;;;6.20;99.90;;;;;;5032234;28;20519;-42
2022/02/21 08:54:10;;;;;;;9.75;1.90;;;6.20;99.90;;;;;;5031964;28;20033;-48
2022/02/21 08:56:42;;;;;;;;;;;6.30;99.90;;;;;;5069309;28;20353;-44
2022/02/21 08:59:07;;;;;;;14.27;2.95;;;6.40;99.90;;;;;;5067242;28;19916;-44
2022/02/21 09:01:33;;;;;;;10.25;2.78;;;6.40;99.90;;;;;;5068465;28;20270;-42
2022/02/21 09:03:58;;;;;;;10.00;1.85;;;6.50;99.90;;;;;;5068058;28;20066;-44
2022/02/21 09:06:24;;;;;;;8.93;2.10;;;6.50;99.90;;;;;;5068564;28;20508;-46
2022/02/21 09:08:49;;;;;;;9.77;2.20;;;6.60;99.90;;;;;;5068528;28;20492;-46
2022/02/21 09:11:15;;;;;;;13.10;4.05;;;6.60;99.90;;;;;;5068456;28;20048;-45
2022/02/21 09:13:40;;;;;;;6.90;2.03;;;6.80;99.90;;;;;;5068225;28;20036;-46
2022/02/21 09:16:06;;;;;;;12.60;2.22;;;6.90;99.90;;;;;;5068505;28;20482;-46
2022/02/21 09:18:32;;;;;;;12.27;2.63;;;7.00;99.90;;;;;;5068427;28;20070;-45
2022/02/21 09:20:59;;;;;;;6.60;2.08;;;7.20;99.90;;;;;;5068122;28;20059;-44
2022/02/21 09:23:24;;;;;;;7.50;2.50;;;7.30;99.90;;;;;;5068030;28;20125;-45
2022/02/21 09:25:50;;;;;;;11.50;2.40;;;7.40;99.90;;;;;;5068485;28;20056;-45
2022/02/21 09:28:15;;;;;;;8.45;2.13;;;7.60;99.90;;;;;;5068308;28;20064;-46
2022/02/21 09:30:41;;;;;;;10.05;2.15;;;8.30;98.90;;;;;;5066781;28;20031;-47
2022/02/21 09:33:06;;;;;;;8.23;2.30;;;9.00;97.90;;;;;;5067758;28;20024;-44
2022/02/21 09:35:32;;;;;;;7.03;2.10;;;9.90;94.50;;;;;;5068012;28;20032;-44
2022/02/21 09:37:58;;;;;;;5.90;1.73;;;10.50;94.30;;;;;;5066908;28;20068;-46
2022/02/21 09:40:23;;;;;;;4.28;1.70;;;10.40;92.70;;;;;;5068075;28;20075;-46
2022/02/21 09:42:49;;;;;;;5.82;2.00;;;10.60;92.40;;;;;;5067632;28;20403;-43
2022/02/21 09:45:18;;;;;;;6.25;2.00;;;10.80;91.40;;;;;;5067877;28;20087;-45
2022/02/21 09:47:44;;;;;;;6.28;1.98;;;10.60;91.50;;;;;;5067819;28;20028;-43
2022/02/21 09:50:11;;;;;;;4.07;2.65;;;10.80;90.90;;;;;;5066757;28;20032;-41
2022/02/21 09:52:37;;;;;;;3.55;1.75;;;10.90;91.70;;;;;;5067563;28;20017;-47
2022/02/21 09:55:03;;;;;;;6.50;2.50;;;11.20;91.60;;;;;;5066022;28;20029;-47
2022/02/21 09:57:29;;;;;;;5.25;1.73;;;10.90;90.10;;;;;;5067660;28;20040;-43
2022/02/21 09:59:54;;;;;;;4.80;1.90;;;11.00;90.60;;;;;;5067603;28;20024;-43
2022/02/21 10:02:23;;;;;;;8.85;2.75;;;11.30;88.90;;;;;;5061930;28;20021;-46
2022/02/21 10:05:11;;;;;;;6.68;2.20;;;11.10;87.90;;;;;;5065394;28;20496;-46
2022/02/21 10:07:38;;;;;;;4.78;1.13;;;11.40;87.70;;;;;;5055366;28;20029;-48
2022/02/21 10:10:05;;;;;;;5.78;1.73;;;11.60;87.30;;;;;;5050607;28;20436;-48
2022/02/21 10:12:31;;;;;;;4.30;1.65;;;11.60;87.80;;;;;;5037348;28;20038;-47
2022/02/21 10:15:09;;;;;;;2.33;1.20;;;11.80;88.30;;;;;;5053701;28;20052;-48
2022/02/21 10:17:34;;;;;;;7.07;1.20;;;11.60;90.60;;;;;;5045650;28;20025;-47
2022/02/21 10:20:05;;;;;;;6.72;1.23;;;11.30;91.40;;;;;;5037162;28;20115;-45
2022/02/21 10:22:32;;;;;;;4.95;2.65;;;10.90;91.50;;;;;;5042254;28;20485;-44
2022/02/21 10:24:59;;;;;;;3.70;1.10;;;10.70;92.30;;;;;;5042061;28;20143;-45
2022/02/21 10:27:30;;;;;;;3.10;1.85;;;10.60;92.50;;;;;;5053862;28;20036;-45
2022/02/21 10:33:17;;;;;;;4.90;1.10;;;9.70;93.50;;;;;;5051360;28;20499;-45
2022/02/21 10:35:43;;;;;;;4.18;1.33;;;9.00;93.80;;;;;;5053500;28;20032;-45
2022/02/21 10:38:09;;;;;;;7.32;1.30;;;8.50;95.00;;;;;;5053458;28;20021;-47
2022/02/21 10:40:36;;;;;;;5.25;1.23;;;8.10;95.60;;;;;;5053536;28;20552;-46
2022/02/21 10:43:14;;;;;;;5.13;1.10;;;8.00;96.30;;;;;;5048497;28;20473;-47
2022/02/21 10:45:41;;;;;;;7.60;1.52;;;8.00;97.00;;;;;;5033726;28;20021;-48
2022/02/21 10:48:16;;;;;;;4.00;1.23;;;7.90;97.50;;;;;;5042530;28;20117;-49
2022/02/21 10:51:03;;;;;;;5.82;1.40;;;8.10;97.00;;;;;;5041321;28;20045;-45
2022/02/21 10:53:44;;;;;;;6.28;1.17;;;8.60;96.60;;;;;;5035324;28;20037;-47
2022/02/21 10:56:11;;;;;;;9.35;1.42;;;8.60;95.90;;;;;;5031899;28;20044;-45
2022/02/21 10:58:37;;;;;;;5.22;1.65;;;8.80;94.40;;;;;;5027513;28;20404;-48
2022/02/21 11:01:04;;;;;;;7.57;1.92;;;9.00;93.60;;;;;;5033780;28;20180;-47
2022/02/21 11:03:30;;;;;;;8.43;2.67;;;8.80;93.90;;;;;;5051360;28;20017;-43
2022/02/21 11:05:59;;;;;;;7.28;1.98;;;8.70;94.70;;;;;;5052850;28;20025;-43
2022/02/21 11:08:27;;;;;;;6.68;2.53;;;8.60;95.00;;;;;;5049834;28;20036;-43
2022/02/21 11:10:57;;;;;;;8.40;2.20;;;8.60;95.60;;;;;;5048384;28;20025;-44
2022/02/21 11:13:25;;;;;;;5.50;1.80;;;8.50;94.60;;;;;;5031457;28;20116;-43
2022/02/21 11:15:52;;;;;;;4.45;1.52;;;8.40;95.10;;;;;;5048262;28;20484;-42
2022/02/21 11:18:19;;;;;;;9.88;2.60;;;8.40;95.20;;;;;;5047060;28;20109;-44
2022/02/21 11:20:45;;;;;;;4.72;1.50;;;8.40;95.40;;;;;;5030804;28;20055;-41
2022/02/21 11:23:11;;;;;;;7.80;1.35;;;8.50;96.10;;;;;;5031254;28;20392;-43
2022/02/21 11:25:47;;;;;;;5.00;1.83;;;8.40;96.90;;;;;;5032689;28;20029;-43
2022/02/21 11:28:18;;;;;;;6.03;1.52;;;8.30;97.40;;;;;;5031400;28;20033;-45
2022/02/21 11:30:47;;;;;;;4.88;1.30;;;8.20;98.00;;;;;;5037113;28;20382;-42
2022/02/21 11:33:13;;;;;;;1.40;0.70;;;8.10;98.40;;;;;;5052047;28;20500;-43
2022/02/21 11:35:59;;;;;;;8.00;1.23;;;8.00;99.50;;;;;;5051997;28;20025;-46
2022/02/21 11:38:27;;;;;;;2.30;0.88;;;8.00;99.90;;;;;;5045995;28;20504;-45
2022/02/21 11:40:57;;;;;;;6.88;1.67;;;8.10;99.90;;;;;;5030972;28;20025;-44
2022/02/21 11:43:29;;;;;;;8.18;1.63;;;8.00;99.90;;;;;;5043644;28;20039;-43
2022/02/21 11:46:02;;;;;;;7.10;1.65;;;8.00;99.90;;;;;;5050939;28;20112;-43
2022/02/21 11:48:49;;;;;;;5.43;1.60;;;8.00;99.90;;;;;;5044951;28;20032;-42
2022/02/21 11:51:41;;;;;;;10.13;1.75;;;8.10;99.90;;;;;;5052366;28;20408;-43
2022/02/21 11:54:29;;;;;;;6.70;1.27;;;8.10;99.90;;;;;;5046147;28;20037;-42
2022/02/21 11:56:59;;;;;;;5.88;1.70;;;8.10;99.90;;;;;;5032123;28;20069;-44
2022/02/21 11:59:26;;;;;;;6.03;1.23;;;8.20;99.90;;;;;;5031963;28;20168;-44
2022/02/21 12:02:12;;;;;;;2.00;1.10;;;8.20;99.90;;;;;;5035311;28;20021;-41
2022/02/21 12:04:57;;;;;;;4.50;1.58;;;8.20;99.90;;;;;;5031196;28;20037;-42
2022/02/21 12:07:24;;;;;;;9.30;1.65;;;8.10;99.90;;;;;;5036344;28;20488;-43
2022/02/21 12:10:22;;;;;;;5.40;1.30;;;8.00;99.90;;;;;;5047798;28;20108;-45
2022/02/21 12:13:00;;;;;;;6.38;1.30;;;7.90;99.90;;;;;;5035998;28;20014;-45
2022/02/21 12:15:32;;;;;;;7.90;2.13;;;7.90;99.90;;;;;;5044071;28;20131;-47
2022/02/21 12:18:07;;;;;;;4.93;1.42;;;7.80;99.90;;;;;;5050638;28;20092;-46
2022/02/21 12:20:38;;;;;;;8.10;2.63;;;7.80;99.90;;;;;;5030670;28;20374;-46
2022/02/21 12:23:13;;;;;;;3.97;1.67;;;7.80;99.90;;;;;;5036049;28;20469;-48
2022/02/21 12:25:59;;;;;;;6.75;2.65;;;7.90;99.90;;;;;;5034315;28;20022;-46
2022/02/21 12:28:26;;;;;;;;;;;7.90;99.90;;;;;;5030686;28;20036;-44
2022/02/21 12:30:57;;;;;;;4.10;1.40;;;7.90;99.90;;;;;;5047734;28;19916;-41
2022/02/21 12:33:31;;;;;;;10.38;2.92;;;7.90;99.90;;;;;;5048872;28;20029;-42
2022/02/21 12:35:59;;;;;;;6.35;1.52;;;7.90;99.90;;;;;;5044198;28;20040;-42
2022/02/21 12:38:28;;;;;;;7.97;1.50;;;7.90;99.90;;;;;;5042250;28;20282;-43
2022/02/21 12:41:02;;;;;;;3.28;1.90;;;7.80;99.90;;;;;;5036331;28;20025;-44
2022/02/21 12:43:48;;;;;;;11.82;2.42;;;7.80;99.90;;;;;;5043942;28;20142;-44
2022/02/21 12:46:16;;;;;;;10.73;1.60;;;7.80;99.90;;;;;;5048220;28;20052;-47
2022/02/21 12:48:46;;;;;;;7.88;1.23;;;7.90;99.90;;;;;;5030997;28;20030;-44
2022/02/21 12:51:20;;;;;;;11.30;1.88;;;7.90;99.90;;;;;;5034535;28;20437;-45
2022/02/21 12:53:59;;;;;;;5.25;1.70;;;7.90;99.90;;;;;;5046717;28;20377;-48
2022/02/21 12:56:27;;;;;;;10.18;2.47;;;7.90;99.90;;;;;;5050642;28;20303;-48
2022/02/21 12:58:53;;;;;;;4.38;1.42;;;7.90;99.90;;;;;;5052015;28;20021;-47
2022/02/21 13:01:20;;;;;;;10.88;2.65;;;7.80;99.90;;;;;;5047894;28;20154;-49
2022/02/21 13:03:58;;;;;;;6.93;1.50;;;7.80;99.90;;;;;;5030829;28;20064;-48